createdAt,value
2023-02-22T00:00:44.010Z,68.64
2023-02-22T00:03:24.937Z,68.71
2023-02-22T00:06:04.769Z,68.70
2023-02-22T00:08:34.066Z,68.75
2023-02-22T00:11:02.224Z,68.75
2023-02-22T00:13:29.710Z,68.74
2023-02-22T00:15:57.504Z,68.55
2023-02-22T00:18:24.593Z,68.63
2023-02-22T00:20:51.432Z,68.63
2023-02-22T00:23:21.460Z,68.72
2023-02-22T00:25:50.131Z,68.84
2023-02-22T00:28:18.840Z,68.74
2023-02-22T00:30:45.694Z,68.65
2023-02-22T00:33:14.386Z,68.69
2023-02-22T00:35:41.910Z,68.66
2023-02-22T00:38:08.255Z,68.71
2023-02-22T00:40:35.322Z,69.00
2023-02-22T00:43:03.696Z,68.81
2023-02-22T00:45:32.890Z,68.59
2023-02-22T00:48:00.250Z,68.61
2023-02-22T00:50:28.622Z,68.61
2023-02-22T00:52:56.424Z,68.73
2023-02-22T00:55:26.878Z,68.63
2023-02-22T00:57:53.821Z,68.72
2023-02-22T01:00:26.551Z,68.76
2023-02-22T01:02:54.308Z,68.56
2023-02-22T01:05:22.785Z,68.64
2023-02-22T01:07:50.266Z,68.72
2023-02-22T01:10:19.967Z,68.78
2023-02-22T01:12:47.223Z,68.58
2023-02-22T01:15:15.840Z,68.53
2023-02-22T01:17:43.713Z,68.36
2023-02-22T01:20:14.150Z,68.52
2023-02-22T01:22:45.655Z,68.54
2023-02-22T01:25:16.071Z,68.63
2023-02-22T01:27:42.433Z,68.73
2023-02-22T01:30:12.199Z,68.60
2023-02-22T01:32:41.515Z,68.65
2023-02-22T01:35:18.462Z,68.69
2023-02-22T01:37:45.563Z,68.78
2023-02-22T01:40:23.056Z,68.78
2023-02-22T01:42:54.067Z,68.97
2023-02-22T01:45:29.477Z,68.72
2023-02-22T01:48:22.577Z,68.86
2023-02-22T01:50:54.732Z,68.60
2023-02-22T01:53:26.919Z,68.60
2023-02-22T01:55:55.212Z,68.09
2023-02-22T01:58:24.075Z,68.37
2023-02-22T02:00:50.940Z,68.39
2023-02-22T02:03:22.244Z,68.36
2023-02-22T02:05:51.936Z,68.52
2023-02-22T02:08:42.359Z,68.46
2023-02-22T02:11:09.960Z,68.54
2023-02-22T02:13:36.611Z,68.37
2023-02-22T02:16:03.448Z,68.29
2023-02-22T02:18:30.182Z,68.49
2023-02-22T02:20:56.493Z,68.56
2023-02-22T02:23:59.792Z,68.64
2023-02-22T02:26:41.483Z,68.47
2023-02-22T02:29:38.885Z,68.47
2023-02-22T02:32:35.218Z,68.21
2023-02-22T02:35:21.508Z,67.97
2023-02-22T02:38:16.209Z,67.92
2023-02-22T02:40:55.734Z,67.50
2023-02-22T02:43:31.329Z,67.19
2023-02-22T02:46:14.322Z,67.28
2023-02-22T02:48:45.563Z,67.05
2023-02-22T02:51:14.282Z,67.15
2023-02-22T02:53:44.736Z,66.88
2023-02-22T02:56:11.522Z,66.91
2023-02-22T02:58:49.049Z,66.89
2023-02-22T03:01:40.341Z,66.97
2023-02-22T03:04:27.045Z,67.29
2023-02-22T03:07:38.510Z,67.47
2023-02-22T03:10:26.829Z,67.46
2023-02-22T03:13:15.838Z,67.53
2023-02-22T03:15:54.140Z,67.57
2023-02-22T03:19:04.711Z,67.84
2023-02-22T03:21:55.417Z,67.71
2023-02-22T03:25:02.162Z,68.15
2023-02-22T03:27:41.536Z,68.04
2023-02-22T03:30:12.282Z,68.44
2023-02-22T03:32:43.509Z,68.61
2023-02-22T03:35:16.522Z,68.86
2023-02-22T03:37:48.763Z,69.36
2023-02-22T03:40:26.425Z,69.20
2023-02-22T03:43:00.338Z,69.51
2023-02-22T03:45:29.995Z,69.45
2023-02-22T03:48:44.059Z,69.88
2023-02-22T03:51:16.668Z,69.87
2023-02-22T03:53:44.594Z,70.25
2023-02-22T03:56:15.246Z,70.39
2023-02-22T03:58:47.909Z,70.06
2023-02-22T04:01:15.691Z,70.20
2023-02-22T04:03:42.639Z,70.56
2023-02-22T04:06:09.781Z,70.69
2023-02-22T04:08:36.204Z,70.78
2023-02-22T04:11:03.455Z,70.91
2023-02-22T04:13:29.875Z,70.86
2023-02-22T04:15:56.405Z,70.95
2023-02-22T04:18:22.861Z,71.02
2023-02-22T04:20:49.411Z,71.11
2023-02-22T04:23:16.874Z,70.70
2023-02-22T04:25:43.492Z,70.66
2023-02-22T04:28:09.873Z,70.99
2023-02-22T04:30:36.266Z,70.57
2023-02-22T04:33:02.629Z,70.38
2023-02-22T04:35:29.013Z,70.10
2023-02-22T04:37:55.469Z,70.29
2023-02-22T04:40:22.097Z,70.17
2023-02-22T04:42:48.425Z,70.38
2023-02-22T04:45:14.977Z,70.35
2023-02-22T04:47:41.392Z,70.31
2023-02-22T04:50:09.279Z,70.54
2023-02-22T04:52:35.712Z,70.27
2023-02-22T04:55:02.166Z,70.62
2023-02-22T04:57:28.574Z,70.52
2023-02-22T04:59:54.925Z,70.42
2023-02-22T05:02:21.476Z,70.45
2023-02-22T05:04:48.043Z,70.34
2023-02-22T05:07:14.499Z,70.45
2023-02-22T05:09:41.059Z,70.30
2023-02-22T05:12:07.620Z,70.36
2023-02-22T05:14:34.019Z,70.49
2023-02-22T05:17:01.494Z,70.22
2023-02-22T05:19:27.864Z,70.09
2023-02-22T05:21:56.322Z,69.86
2023-02-22T05:24:22.740Z,69.96
2023-02-22T05:26:51.264Z,69.71
2023-02-22T05:29:17.894Z,69.78
2023-02-22T05:31:44.303Z,69.42
2023-02-22T05:34:10.847Z,69.74
2023-02-22T05:36:37.232Z,69.74
2023-02-22T05:39:05.336Z,69.63
2023-02-22T05:41:31.771Z,69.58
2023-02-22T05:43:58.145Z,69.73
2023-02-22T05:46:25.094Z,69.65
2023-02-22T05:48:51.568Z,69.69
2023-02-22T05:51:19.699Z,69.53
2023-02-22T05:53:46.403Z,69.68
2023-02-22T05:56:12.813Z,69.77
2023-02-22T05:58:39.253Z,69.63
2023-02-22T06:01:05.792Z,69.65
2023-02-22T06:03:32.214Z,69.45
2023-02-22T06:05:58.870Z,69.58
2023-02-22T06:08:25.283Z,69.70
2023-02-22T06:10:51.657Z,69.55
2023-02-22T06:13:18.082Z,69.71
2023-02-22T06:15:44.491Z,69.77
2023-02-22T06:18:10.995Z,69.72
2023-02-22T06:20:37.473Z,69.64
2023-02-22T06:23:03.803Z,69.84
2023-02-22T06:25:31.497Z,69.62
2023-02-22T06:27:59.255Z,69.40
2023-02-22T06:30:26.704Z,69.34
2023-02-22T06:32:53.438Z,69.04
2023-02-22T06:35:20.886Z,69.80
2023-02-22T06:37:47.716Z,69.68
2023-02-22T06:40:15.298Z,69.68
2023-02-22T06:42:41.959Z,69.73
2023-02-22T06:45:09.026Z,69.98
2023-02-22T06:47:40.353Z,69.66
2023-02-22T06:50:08.762Z,69.82
2023-02-22T06:52:35.237Z,69.71
2023-02-22T06:55:01.620Z,69.84
2023-02-22T06:57:27.994Z,69.79
2023-02-22T06:59:54.558Z,69.78
2023-02-22T07:02:20.964Z,69.64
2023-02-22T07:04:47.342Z,69.85
2023-02-22T07:07:13.766Z,69.27
2023-02-22T07:09:40.133Z,69.42
2023-02-22T07:12:07.840Z,69.73
2023-02-22T07:14:34.208Z,69.88
2023-02-22T07:17:00.546Z,70.21
2023-02-22T07:19:26.942Z,69.96
2023-02-22T07:21:59.053Z,69.88
2023-02-22T07:24:28.378Z,70.13
2023-02-22T07:26:55.097Z,70.36
2023-02-22T07:29:22.340Z,70.41
2023-02-22T07:31:48.758Z,70.23
2023-02-22T07:34:15.099Z,70.38
2023-02-22T07:36:41.427Z,70.11
2023-02-22T07:39:08.670Z,69.88
2023-02-22T07:41:35.199Z,70.10
2023-02-22T07:44:01.633Z,70.11
2023-02-22T07:46:28.050Z,70.40
2023-02-22T07:48:54.518Z,70.45
2023-02-22T07:51:21.038Z,70.27
2023-02-22T07:53:48.406Z,69.87
2023-02-22T07:56:14.777Z,69.79
2023-02-22T07:58:41.583Z,69.86
2023-02-22T08:01:08.603Z,69.53
2023-02-22T08:03:36.669Z,69.44
2023-02-22T08:06:05.161Z,69.34
2023-02-22T08:08:31.696Z,69.41
2023-02-22T08:10:58.246Z,69.50
2023-02-22T08:13:24.683Z,69.38
2023-02-22T08:15:53.597Z,69.68
2023-02-22T08:18:21.237Z,69.61
2023-02-22T08:20:49.940Z,69.66
2023-02-22T08:23:18.082Z,69.29
2023-02-22T08:25:45.035Z,69.38
2023-02-22T08:28:15.087Z,69.44
2023-02-22T08:30:45.317Z,69.37
2023-02-22T08:33:21.249Z,69.41
2023-02-22T08:35:49.613Z,69.16
2023-02-22T08:38:25.710Z,68.99
2023-02-22T08:40:52.022Z,69.05
2023-02-22T08:43:19.637Z,68.98
2023-02-22T08:45:47.238Z,68.81
2023-02-22T08:48:15.136Z,68.78
2023-02-22T08:50:41.914Z,68.61
2023-02-22T08:53:09.711Z,68.70
2023-02-22T08:55:38.506Z,68.64
2023-02-22T08:58:09.130Z,68.84
2023-02-22T09:00:38.598Z,68.51
2023-02-22T09:03:08.782Z,69.07
2023-02-22T09:05:35.190Z,69.17
2023-02-22T09:08:01.670Z,69.06
2023-02-22T09:10:30.921Z,69.00
2023-02-22T09:13:00.505Z,68.89
2023-02-22T09:15:27.357Z,68.16
2023-02-22T09:17:54.418Z,68.46
2023-02-22T09:20:23.719Z,68.38
2023-02-22T09:22:50.423Z,68.27
2023-02-22T09:25:18.012Z,68.23
2023-02-22T09:27:47.820Z,68.32
2023-02-22T09:30:35.657Z,68.37
2023-02-22T09:33:05.665Z,68.08
2023-02-22T09:35:36.406Z,67.83
2023-02-22T09:38:06.054Z,67.60
2023-02-22T09:40:40.966Z,67.69
2023-02-22T09:43:31.146Z,67.39
2023-02-22T09:46:20.817Z,67.42
2023-02-22T09:49:13.822Z,67.47
2023-02-22T09:51:49.210Z,67.40
2023-02-22T09:54:28.135Z,67.25
2023-02-22T09:56:58.335Z,66.99
2023-02-22T09:59:31.444Z,66.98
2023-02-22T10:02:24.440Z,66.78
2023-02-22T10:05:06.430Z,66.81
2023-02-22T10:07:38.962Z,66.53
2023-02-22T10:10:06.397Z,66.02
2023-02-22T10:12:51.525Z,66.30
2023-02-22T10:15:37.201Z,66.04
2023-02-22T10:18:24.811Z,65.86
2023-02-22T10:21:17.568Z,65.63
2023-02-22T10:24:04.969Z,65.46
2023-02-22T10:26:36.608Z,65.22
2023-02-22T10:29:22.735Z,65.27
2023-02-22T10:31:56.616Z,65.06
2023-02-22T10:34:26.301Z,64.76
2023-02-22T10:37:03.457Z,64.83
2023-02-22T10:39:35.244Z,64.59
2023-02-22T10:42:08.043Z,64.50
2023-02-22T10:44:38.953Z,64.04
2023-02-22T10:47:08.867Z,63.98
2023-02-22T10:49:39.888Z,64.34
2023-02-22T10:52:24.406Z,64.04
2023-02-22T10:54:52.065Z,63.65
2023-02-22T10:57:32.144Z,64.15
2023-02-22T11:00:13.905Z,63.59
2023-02-22T11:02:51.449Z,63.51
2023-02-22T11:05:30.560Z,63.31
2023-02-22T11:08:23.632Z,63.01
2023-02-22T11:10:56.636Z,63.00
2023-02-22T11:13:27.969Z,63.10
2023-02-22T11:15:58.081Z,62.60
2023-02-22T11:18:29.604Z,62.34
2023-02-22T11:21:06.212Z,62.60
2023-02-22T11:23:33.981Z,61.73
2023-02-22T11:26:10.021Z,61.82
2023-02-22T11:28:37.461Z,61.60
2023-02-22T11:31:15.528Z,61.85
2023-02-22T11:36:37.877Z,61.45
2023-02-22T11:39:11.328Z,61.11
2023-02-22T11:41:37.930Z,60.04
2023-02-22T11:44:28.382Z,60.22
2023-02-22T11:46:57.673Z,59.86
2023-02-22T11:49:33.255Z,59.80
2023-02-22T11:52:16.502Z,59.48
2023-02-22T11:55:07.317Z,58.56
2023-02-22T11:57:33.599Z,57.75
2023-02-22T12:00:27.732Z,58.22
2023-02-22T12:03:15.890Z,58.27
2023-02-22T12:05:42.760Z,57.71
2023-02-22T12:08:25.231Z,58.05
2023-02-22T12:11:22.904Z,57.89
2023-02-22T12:14:07.466Z,57.80
2023-02-22T12:16:45.853Z,56.63
2023-02-22T12:19:27.948Z,57.15
2023-02-22T12:22:03.460Z,57.14
2023-02-22T12:25:09.113Z,57.07
2023-02-22T12:27:46.990Z,56.27
2023-02-22T12:30:21.951Z,56.06
2023-02-22T12:32:53.469Z,55.38
2023-02-22T12:35:29.964Z,54.91
2023-02-22T12:38:22.987Z,54.67
2023-02-22T12:41:15.187Z,54.45
2023-02-22T12:43:51.815Z,53.94
2023-02-22T12:46:24.631Z,53.68
2023-02-22T12:49:17.786Z,52.71
2023-02-22T12:51:54.366Z,52.82
2023-02-22T12:54:45.642Z,52.68
2023-02-22T12:57:31.050Z,52.79
2023-02-22T13:00:03.005Z,52.59
2023-02-22T13:02:45.637Z,52.43
2023-02-22T13:05:17.886Z,52.46
2023-02-22T13:08:24.773Z,52.46
2023-02-22T13:11:19.857Z,52.48
2023-02-22T13:13:54.560Z,52.09
2023-02-22T13:16:52.589Z,52.70
2023-02-22T13:19:56.810Z,52.17
2023-02-22T13:22:35.350Z,52.05
2023-02-22T13:25:09.144Z,51.62
2023-02-22T13:28:08.628Z,51.07
2023-02-22T13:30:41.287Z,51.09
2023-02-22T13:33:29.560Z,51.41
2023-02-22T13:36:19.360Z,51.65
2023-02-22T13:39:04.421Z,51.97
2023-02-22T13:41:51.754Z,51.65
2023-02-22T13:44:45.602Z,51.84
2023-02-22T13:47:14.952Z,51.51
2023-02-22T13:49:44.306Z,51.03
2023-02-22T13:52:17.944Z,50.91
2023-02-22T13:55:00.174Z,50.44
2023-02-22T13:57:36.797Z,50.55
2023-02-22T14:00:15.056Z,50.47
2023-02-22T14:03:02.686Z,50.73
2023-02-22T14:05:36.408Z,50.30
2023-02-22T14:08:25.200Z,50.35
2023-02-22T14:10:59.026Z,49.63
2023-02-22T14:13:27.058Z,49.40
2023-02-22T14:16:02.645Z,50.12
2023-02-22T14:18:37.561Z,49.37
2023-02-22T14:21:22.673Z,49.94
2023-02-22T14:23:53.865Z,49.64
2023-02-22T14:26:20.346Z,49.16
2023-02-22T14:29:10.329Z,49.71
2023-02-22T14:31:59.792Z,50.01
2023-02-22T14:34:44.780Z,49.50
2023-02-22T14:37:31.256Z,49.13
2023-02-22T14:39:57.767Z,50.91
2023-02-22T14:42:32.592Z,49.31
2023-02-22T14:45:14.132Z,49.14
2023-02-22T14:48:11.719Z,49.49
2023-02-22T14:50:41.391Z,49.20
2023-02-22T14:53:14.232Z,48.88
2023-02-22T14:55:50.730Z,49.04
2023-02-22T14:58:23.375Z,49.30
2023-02-22T15:00:56.815Z,48.83
2023-02-22T15:03:37.108Z,48.88
2023-02-22T15:06:14.797Z,48.68
2023-02-22T15:08:46.421Z,48.44
2023-02-22T15:11:31.066Z,49.00
2023-02-22T15:13:58.493Z,48.43
2023-02-22T15:16:27.604Z,48.60
2023-02-22T15:18:58.001Z,49.07
2023-02-22T15:21:27.538Z,49.11
2023-02-22T15:24:07.603Z,49.44
2023-02-22T15:26:59.025Z,49.24
2023-02-22T15:29:35.050Z,49.05
2023-02-22T15:32:01.881Z,49.17
2023-02-22T15:34:31.514Z,49.08
2023-02-22T15:37:14.625Z,49.26
2023-02-22T15:39:43.862Z,49.11
2023-02-22T15:42:20.910Z,49.68
2023-02-22T15:44:48.751Z,49.51
2023-02-22T15:47:21.084Z,49.45
2023-02-22T15:50:21.064Z,49.85
2023-02-22T15:53:18.080Z,49.98
2023-02-22T15:55:47.263Z,49.61
2023-02-22T15:58:16.950Z,49.79
2023-02-22T16:00:46.869Z,49.33
2023-02-22T16:03:22.985Z,49.76
2023-02-22T16:05:57.912Z,49.78
2023-02-22T16:08:29.284Z,49.83
2023-02-22T16:11:02.242Z,49.97
2023-02-22T16:13:33.167Z,50.10
2023-02-22T16:16:25.025Z,50.18
2023-02-22T16:18:52.187Z,50.51
2023-02-22T16:21:21.640Z,50.32
2023-02-22T16:23:55.996Z,50.79
2023-02-22T16:26:34.081Z,50.83
2023-02-22T16:29:01.928Z,50.53
2023-02-22T16:31:39.867Z,50.95
2023-02-22T16:34:08.676Z,51.09
2023-02-22T16:36:48.949Z,51.31
2023-02-22T16:39:27.026Z,51.38
2023-02-22T16:42:02.008Z,51.32
2023-02-22T16:44:29.334Z,51.75
2023-02-22T16:46:58.982Z,51.70
2023-02-22T16:49:26.464Z,51.92
2023-02-22T16:51:55.952Z,52.12
2023-02-22T16:54:36.411Z,52.56
2023-02-22T16:57:04.367Z,52.58
2023-02-22T16:59:38.457Z,52.85
2023-02-22T17:02:07.576Z,52.94
2023-02-22T17:04:34.461Z,53.34
2023-02-22T17:07:04.983Z,53.58
2023-02-22T17:09:31.781Z,53.82
2023-02-22T17:11:58.154Z,53.93
2023-02-22T17:14:29.831Z,54.12
2023-02-22T17:16:59.232Z,54.39
2023-02-22T17:19:26.681Z,54.44
2023-02-22T17:22:05.944Z,54.54
2023-02-22T17:24:33.905Z,54.61
2023-02-22T17:27:01.681Z,54.67
2023-02-22T17:29:29.279Z,54.68
2023-02-22T17:31:56.298Z,54.85
2023-02-22T17:34:22.882Z,54.94
2023-02-22T17:36:49.318Z,55.16
2023-02-22T17:39:16.228Z,55.20
2023-02-22T17:41:42.595Z,54.87
2023-02-22T17:44:09.096Z,55.40
2023-02-22T17:46:37.003Z,55.61
2023-02-22T17:49:03.462Z,55.56
2023-02-22T17:51:29.922Z,56.00
2023-02-22T17:53:56.341Z,56.05
2023-02-22T17:56:22.699Z,56.43
2023-02-22T17:58:53.253Z,56.27
2023-02-22T18:01:25.156Z,56.36
2023-02-22T18:03:51.895Z,56.33
2023-02-22T18:06:22.588Z,56.44
2023-02-22T18:08:55.838Z,56.50
2023-02-22T18:11:26.126Z,56.70
2023-02-22T18:13:57.227Z,56.91
2023-02-22T18:16:25.777Z,56.88
2023-02-22T18:18:52.921Z,56.73
2023-02-22T18:21:19.247Z,57.06
2023-02-22T18:23:48.464Z,56.88
2023-02-22T18:26:17.213Z,57.21
2023-02-22T18:28:44.222Z,57.20
2023-02-22T18:31:16.408Z,57.20
2023-02-22T18:33:44.562Z,57.25
2023-02-22T18:36:11.874Z,57.53
2023-02-22T18:38:42.784Z,57.41
2023-02-22T18:41:12.141Z,57.52
2023-02-22T18:43:38.967Z,57.75
2023-02-22T18:46:18.426Z,57.58
2023-02-22T18:48:51.346Z,57.69
2023-02-22T18:51:17.848Z,57.85
2023-02-22T18:53:47.586Z,57.95
2023-02-22T18:56:17.834Z,57.82
2023-02-22T18:58:44.474Z,57.87
2023-02-22T19:01:17.396Z,58.13
2023-02-22T19:03:46.978Z,57.95
2023-02-22T19:06:14.768Z,57.92
2023-02-22T19:08:42.902Z,58.04
2023-02-22T19:11:11.734Z,58.10
2023-02-22T19:13:38.417Z,58.40
2023-02-22T19:16:07.166Z,58.41
2023-02-22T19:18:33.643Z,58.61
2023-02-22T19:21:01.949Z,58.61
2023-02-22T19:23:28.396Z,58.80
2023-02-22T19:25:55.005Z,58.77
2023-02-22T19:28:27.960Z,58.72
2023-02-22T19:30:54.371Z,58.77
2023-02-22T19:33:25.612Z,58.98
2023-02-22T19:35:52.290Z,59.04
2023-02-22T19:38:19.544Z,59.32
2023-02-22T19:40:45.935Z,59.33
2023-02-22T19:43:14.164Z,59.54
2023-02-22T19:45:40.597Z,59.44
2023-02-22T19:48:07.030Z,59.53
2023-02-22T19:50:33.478Z,59.53
2023-02-22T19:52:59.816Z,59.67
2023-02-22T19:55:32.035Z,59.62
2023-02-22T19:57:58.605Z,59.71
2023-02-22T20:00:25.096Z,59.57
2023-02-22T20:02:58.562Z,59.83
2023-02-22T20:05:24.898Z,60.16
2023-02-22T20:07:52.812Z,60.03
2023-02-22T20:10:19.312Z,59.83
2023-02-22T20:12:46.826Z,59.90
2023-02-22T20:15:13.526Z,60.12
2023-02-22T20:17:40.277Z,60.39
2023-02-22T20:20:07.128Z,60.24
2023-02-22T20:22:35.761Z,60.31
2023-02-22T20:25:02.130Z,60.29
2023-02-22T20:27:28.823Z,60.32
2023-02-22T20:29:55.199Z,60.09
2023-02-22T20:32:24.513Z,60.14
2023-02-22T20:34:50.932Z,60.22
2023-02-22T20:37:19.233Z,60.26
2023-02-22T20:39:45.610Z,60.50
2023-02-22T20:42:12.052Z,60.37
2023-02-22T20:44:38.444Z,60.54
2023-02-22T20:47:05.128Z,60.34
2023-02-22T20:49:31.542Z,60.83
2023-02-22T20:51:58.150Z,60.66
2023-02-22T20:54:24.660Z,60.83
2023-02-22T20:56:52.907Z,60.64
2023-02-22T20:59:19.749Z,60.99
2023-02-22T21:01:50.081Z,61.13
2023-02-22T21:04:16.681Z,60.85
2023-02-22T21:06:44.409Z,60.83
2023-02-22T21:09:13.890Z,61.04
2023-02-22T21:11:40.705Z,61.47
2023-02-22T21:14:07.375Z,61.85
2023-02-22T21:16:36.479Z,61.90
2023-02-22T21:19:05.876Z,62.16
2023-02-22T21:21:32.976Z,61.88
2023-02-22T21:24:01.790Z,61.76
2023-02-22T21:26:30.862Z,61.63
2023-02-22T21:29:04.997Z,61.59
2023-02-22T21:31:32.946Z,61.78
2023-02-22T21:34:00.299Z,61.96
2023-02-22T21:36:28.126Z,61.95
2023-02-22T21:38:57.456Z,61.89
2023-02-22T21:41:27.631Z,61.61
2023-02-22T21:43:55.350Z,61.49
2023-02-22T21:46:22.694Z,61.48
2023-02-22T21:48:49.531Z,61.64
2023-02-22T21:51:23.291Z,61.65
2023-02-22T21:53:52.446Z,61.94
2023-02-22T21:56:24.040Z,61.99
2023-02-22T21:59:02.838Z,62.30
2023-02-22T22:01:34.608Z,62.49
2023-02-22T22:04:02.026Z,62.87
2023-02-22T22:06:30.751Z,62.88
2023-02-22T22:08:59.647Z,62.76
2023-02-22T22:11:26.164Z,63.06
2023-02-22T22:13:57.366Z,63.21
2023-02-22T22:16:26.790Z,63.08
2023-02-22T22:18:54.070Z,63.35
2023-02-22T22:21:22.768Z,63.29
2023-02-22T22:23:50.790Z,63.34
2023-02-22T22:26:19.829Z,63.47
2023-02-22T22:28:48.617Z,63.26
2023-02-22T22:31:17.414Z,63.39
2023-02-22T22:33:44.945Z,63.54
2023-02-22T22:36:14.174Z,63.60
2023-02-22T22:38:40.683Z,63.58
2023-02-22T22:41:09.173Z,63.52
2023-02-22T22:43:37.226Z,63.67
2023-02-22T22:46:06.146Z,63.54
2023-02-22T22:48:36.054Z,63.58
2023-02-22T22:51:06.405Z,63.57
2023-02-22T22:53:33.919Z,63.60
2023-02-22T22:56:03.669Z,63.67
2023-02-22T22:58:34.835Z,63.50
2023-02-22T23:01:06.343Z,63.60
2023-02-22T23:03:36.752Z,63.64
2023-02-22T23:06:04.442Z,63.69
2023-02-22T23:08:43.195Z,63.76
2023-02-22T23:11:12.695Z,63.54
2023-02-22T23:13:39.760Z,63.67
2023-02-22T23:16:12.709Z,63.48
2023-02-22T23:18:43.063Z,63.45
2023-02-22T23:21:10.601Z,63.42
2023-02-22T23:23:37.926Z,63.37
2023-02-22T23:26:17.791Z,63.42
2023-02-22T23:28:46.118Z,63.53
2023-02-22T23:31:15.692Z,63.34
2023-02-22T23:33:43.920Z,63.47
2023-02-22T23:36:12.339Z,63.46
2023-02-22T23:38:39.881Z,63.33
2023-02-22T23:41:10.070Z,63.40
2023-02-22T23:43:40.309Z,63.63
2023-02-22T23:46:10.785Z,63.45
2023-02-22T23:48:46.565Z,63.45
2023-02-22T23:51:15.091Z,63.68
2023-02-22T23:53:45.905Z,63.82
2023-02-22T23:56:18.726Z,63.79
2023-02-22T23:58:50.048Z,64.06
